sensor_id;sensor_type;location;lat;lon;timestamp;P1;durP1;ratioP1;P2;durP2;ratioP2
57345;SDS011;43181;50.974;18.244;2023-08-30T00:00:47;1.80;;;1.10;;
57345;SDS011;43181;50.974;18.244;2023-08-30T00:03:13;3.50;;;2.00;;
57345;SDS011;43181;50.974;18.244;2023-08-30T00:05:39;3.00;;;1.60;;
57345;SDS011;43181;50.974;18.244;2023-08-30T00:08:05;2.00;;;1.30;;
57345;SDS011;43181;50.974;18.244;2023-08-30T00:10:31;2.60;;;1.30;;
57345;SDS011;43181;50.974;18.244;2023-08-30T00:12:57;4.80;;;1.40;;
57345;SDS011;43181;50.974;18.244;2023-08-30T00:15:23;2.00;;;1.20;;
57345;SDS011;43181;50.974;18.244;2023-08-30T00:17:48;3.10;;;2.00;;
57345;SDS011;43181;50.974;18.244;2023-08-30T00:20:17;1.70;;;1.20;;
57345;SDS011;43181;50.974;18.244;2023-08-30T00:22:43;1.60;;;1.40;;
57345;SDS011;43181;50.974;18.244;2023-08-30T00:25:09;2.40;;;1.50;;
57345;SDS011;43181;50.974;18.244;2023-08-30T00:27:34;2.20;;;1.30;;
57345;SDS011;43181;50.974;18.244;2023-08-30T00:30:00;2.30;;;1.90;;
57345;SDS011;43181;50.974;18.244;2023-08-30T00:32:26;5.70;;;1.80;;
57345;SDS011;43181;50.974;18.244;2023-08-30T00:34:51;3.30;;;1.50;;
57345;SDS011;43181;50.974;18.244;2023-08-30T00:37:17;2.30;;;1.70;;
57345;SDS011;43181;50.974;18.244;2023-08-30T00:39:43;3.60;;;1.90;;
57345;SDS011;43181;50.974;18.244;2023-08-30T00:42:09;1.60;;;1.50;;
57345;SDS011;43181;50.974;18.244;2023-08-30T00:44:34;4.30;;;1.70;;
57345;SDS011;43181;50.974;18.244;2023-08-30T00:47:00;2.50;;;1.60;;
57345;SDS011;43181;50.974;18.244;2023-08-30T00:49:27;3.30;;;1.80;;
57345;SDS011;43181;50.974;18.244;2023-08-30T00:51:55;4.80;;;0.90;;
57345;SDS011;43181;50.974;18.244;2023-08-30T00:54:22;0.90;;;0.70;;
57345;SDS011;43181;50.974;18.244;2023-08-30T00:56:47;1.50;;;1.40;;
57345;SDS011;43181;50.974;18.244;2023-08-30T00:59:13;4.60;;;1.90;;
57345;SDS011;43181;50.974;18.244;2023-08-30T01:01:39;2.10;;;1.40;;
57345;SDS011;43181;50.974;18.244;2023-08-30T01:04:05;4.60;;;2.50;;
57345;SDS011;43181;50.974;18.244;2023-08-30T01:06:31;3.10;;;2.20;;
57345;SDS011;43181;50.974;18.244;2023-08-30T01:08:57;2.90;;;1.50;;
57345;SDS011;43181;50.974;18.244;2023-08-30T01:11:36;6.00;;;2.00;;
57345;SDS011;43181;50.974;18.244;2023-08-30T01:14:25;4.70;;;1.80;;
57345;SDS011;43181;50.974;18.244;2023-08-30T01:16:55;4.10;;;2.10;;
57345;SDS011;43181;50.974;18.244;2023-08-30T01:27:25;2.50;;;1.50;;
57345;SDS011;43181;50.974;18.244;2023-08-30T01:29:52;4.20;;;2.20;;
57345;SDS011;43181;50.974;18.244;2023-08-30T01:32:19;5.60;;;2.00;;
57345;SDS011;43181;50.974;18.244;2023-08-30T01:34:45;1.10;;;0.90;;
57345;SDS011;43181;50.974;18.244;2023-08-30T01:37:13;5.60;;;2.60;;
57345;SDS011;43181;50.974;18.244;2023-08-30T01:39:39;3.20;;;1.70;;
57345;SDS011;43181;50.974;18.244;2023-08-30T01:42:06;5.70;;;2.50;;
57345;SDS011;43181;50.974;18.244;2023-08-30T01:44:33;4.20;;;1.40;;
57345;SDS011;43181;50.974;18.244;2023-08-30T01:46:59;3.30;;;1.70;;
57345;SDS011;43181;50.974;18.244;2023-08-30T01:49:25;2.70;;;1.70;;
57345;SDS011;43181;50.974;18.244;2023-08-30T01:51:52;3.40;;;2.40;;
57345;SDS011;43181;50.974;18.244;2023-08-30T01:54:20;1.60;;;1.50;;
57345;SDS011;43181;50.974;18.244;2023-08-30T01:56:47;8.20;;;2.20;;
57345;SDS011;43181;50.974;18.244;2023-08-30T01:59:12;2.40;;;1.60;;
57345;SDS011;43181;50.974;18.244;2023-08-30T02:01:38;2.90;;;1.60;;
57345;SDS011;43181;50.974;18.244;2023-08-30T02:04:04;3.70;;;1.90;;
57345;SDS011;43181;50.974;18.244;2023-08-30T02:06:32;3.10;;;1.90;;
57345;SDS011;43181;50.974;18.244;2023-08-30T02:09:17;7.30;;;1.60;;
57345;SDS011;43181;50.974;18.244;2023-08-30T02:11:46;2.40;;;1.90;;
57345;SDS011;43181;50.974;18.244;2023-08-30T02:14:13;6.20;;;2.30;;
57345;SDS011;43181;50.974;18.244;2023-08-30T02:16:43;4.20;;;1.70;;
57345;SDS011;43181;50.974;18.244;2023-08-30T02:19:10;7.30;;;1.70;;
57345;SDS011;43181;50.974;18.244;2023-08-30T02:21:36;4.10;;;2.90;;
57345;SDS011;43181;50.974;18.244;2023-08-30T02:24:02;8.30;;;3.50;;
57345;SDS011;43181;50.974;18.244;2023-08-30T02:26:28;6.10;;;3.10;;
57345;SDS011;43181;50.974;18.244;2023-08-30T02:28:54;5.30;;;3.20;;
57345;SDS011;43181;50.974;18.244;2023-08-30T02:31:20;3.20;;;1.30;;
57345;SDS011;43181;50.974;18.244;2023-08-30T02:33:45;5.60;;;3.20;;
57345;SDS011;43181;50.974;18.244;2023-08-30T02:36:11;4.60;;;1.70;;
57345;SDS011;43181;50.974;18.244;2023-08-30T02:38:36;4.70;;;1.30;;
57345;SDS011;43181;50.974;18.244;2023-08-30T02:41:02;2.00;;;1.30;;
57345;SDS011;43181;50.974;18.244;2023-08-30T02:43:28;3.10;;;1.80;;
57345;SDS011;43181;50.974;18.244;2023-08-30T02:45:54;11.50;;;2.50;;
57345;SDS011;43181;50.974;18.244;2023-08-30T02:48:19;5.40;;;2.80;;
57345;SDS011;43181;50.974;18.244;2023-08-30T02:50:45;4.00;;;2.10;;
57345;SDS011;43181;50.974;18.244;2023-08-30T02:53:11;2.80;;;1.80;;
57345;SDS011;43181;50.974;18.244;2023-08-30T02:55:36;3.40;;;1.30;;
57345;SDS011;43181;50.974;18.244;2023-08-30T02:58:02;1.20;;;1.00;;
57345;SDS011;43181;50.974;18.244;2023-08-30T03:00:28;4.00;;;2.00;;
57345;SDS011;43181;50.974;18.244;2023-08-30T03:02:56;1.40;;;1.30;;
57345;SDS011;43181;50.974;18.244;2023-08-30T03:05:21;5.70;;;2.20;;
57345;SDS011;43181;50.974;18.244;2023-08-30T03:07:47;1.80;;;1.30;;
57345;SDS011;43181;50.974;18.244;2023-08-30T03:10:13;1.30;;;1.20;;
57345;SDS011;43181;50.974;18.244;2023-08-30T03:12:38;7.30;;;2.30;;
57345;SDS011;43181;50.974;18.244;2023-08-30T03:15:04;2.50;;;2.00;;
57345;SDS011;43181;50.974;18.244;2023-08-30T03:17:31;4.00;;;2.30;;
57345;SDS011;43181;50.974;18.244;2023-08-30T03:19:57;5.00;;;2.70;;
57345;SDS011;43181;50.974;18.244;2023-08-30T03:22:23;0.80;;;0.70;;
57345;SDS011;43181;50.974;18.244;2023-08-30T03:24:50;1.70;;;1.40;;
57345;SDS011;43181;50.974;18.244;2023-08-30T03:27:16;3.40;;;2.60;;
57345;SDS011;43181;50.974;18.244;2023-08-30T03:29:42;3.30;;;2.40;;
57345;SDS011;43181;50.974;18.244;2023-08-30T03:32:08;3.10;;;1.60;;
57345;SDS011;43181;50.974;18.244;2023-08-30T03:34:34;4.70;;;2.30;;
57345;SDS011;43181;50.974;18.244;2023-08-30T03:36:59;6.70;;;1.30;;
57345;SDS011;43181;50.974;18.244;2023-08-30T03:39:25;2.60;;;1.60;;
57345;SDS011;43181;50.974;18.244;2023-08-30T03:41:50;10.60;;;3.00;;
57345;SDS011;43181;50.974;18.244;2023-08-30T03:44:16;3.60;;;1.90;;
57345;SDS011;43181;50.974;18.244;2023-08-30T03:46:42;10.80;;;1.80;;
57345;SDS011;43181;50.974;18.244;2023-08-30T03:49:08;3.60;;;1.80;;
57345;SDS011;43181;50.974;18.244;2023-08-30T03:51:33;4.10;;;2.20;;
57345;SDS011;43181;50.974;18.244;2023-08-30T03:53:59;4.10;;;1.20;;
57345;SDS011;43181;50.974;18.244;2023-08-30T03:56:25;3.00;;;1.30;;
57345;SDS011;43181;50.974;18.244;2023-08-30T03:58:51;1.40;;;1.30;;
57345;SDS011;43181;50.974;18.244;2023-08-30T04:01:17;1.90;;;1.70;;
57345;SDS011;43181;50.974;18.244;2023-08-30T04:03:42;0.60;;;0.60;;
57345;SDS011;43181;50.974;18.244;2023-08-30T04:06:08;1.30;;;1.10;;
57345;SDS011;43181;50.974;18.244;2023-08-30T04:08:34;1.30;;;1.00;;
57345;SDS011;43181;50.974;18.244;2023-08-30T04:10:59;3.30;;;1.20;;
57345;SDS011;43181;50.974;18.244;2023-08-30T04:13:25;3.90;;;0.90;;
57345;SDS011;43181;50.974;18.244;2023-08-30T04:15:53;5.20;;;1.40;;
57345;SDS011;43181;50.974;18.244;2023-08-30T04:18:18;2.70;;;2.20;;
57345;SDS011;43181;50.974;18.244;2023-08-30T04:20:45;1.10;;;0.90;;
57345;SDS011;43181;50.974;18.244;2023-08-30T04:23:11;5.60;;;0.90;;
57345;SDS011;43181;50.974;18.244;2023-08-30T04:25:37;2.40;;;1.50;;
57345;SDS011;43181;50.974;18.244;2023-08-30T04:28:02;3.40;;;1.30;;
57345;SDS011;43181;50.974;18.244;2023-08-30T04:30:28;2.20;;;1.70;;
57345;SDS011;43181;50.974;18.244;2023-08-30T04:32:54;3.50;;;2.10;;
57345;SDS011;43181;50.974;18.244;2023-08-30T04:35:20;0.80;;;0.80;;
57345;SDS011;43181;50.974;18.244;2023-08-30T04:37:46;2.70;;;1.40;;
57345;SDS011;43181;50.974;18.244;2023-08-30T04:40:13;5.30;;;1.10;;
57345;SDS011;43181;50.974;18.244;2023-08-30T04:42:39;2.80;;;1.80;;
57345;SDS011;43181;50.974;18.244;2023-08-30T04:45:06;3.00;;;1.30;;
57345;SDS011;43181;50.974;18.244;2023-08-30T04:47:32;2.90;;;1.90;;
57345;SDS011;43181;50.974;18.244;2023-08-30T04:49:58;1.60;;;1.00;;
57345;SDS011;43181;50.974;18.244;2023-08-30T04:52:25;1.70;;;1.50;;
57345;SDS011;43181;50.974;18.244;2023-08-30T04:54:50;4.20;;;2.00;;
57345;SDS011;43181;50.974;18.244;2023-08-30T04:57:16;1.40;;;1.10;;
57345;SDS011;43181;50.974;18.244;2023-08-30T04:59:42;3.10;;;1.50;;
57345;SDS011;43181;50.974;18.244;2023-08-30T05:02:09;0.90;;;0.80;;
57345;SDS011;43181;50.974;18.244;2023-08-30T05:04:34;3.10;;;0.60;;
57345;SDS011;43181;50.974;18.244;2023-08-30T05:07:01;0.40;;;0.30;;
57345;SDS011;43181;50.974;18.244;2023-08-30T05:09:27;4.30;;;1.90;;
57345;SDS011;43181;50.974;18.244;2023-08-30T05:11:53;2.30;;;0.90;;
57345;SDS011;43181;50.974;18.244;2023-08-30T05:14:22;3.90;;;0.90;;
57345;SDS011;43181;50.974;18.244;2023-08-30T05:16:48;0.40;;;0.40;;
57345;SDS011;43181;50.974;18.244;2023-08-30T05:19:14;1.20;;;0.60;;
57345;SDS011;43181;50.974;18.244;2023-08-30T05:21:42;1.50;;;0.30;;
57345;SDS011;43181;50.974;18.244;2023-08-30T05:24:08;0.70;;;0.50;;
57345;SDS011;43181;50.974;18.244;2023-08-30T05:26:34;0.30;;;0.30;;
57345;SDS011;43181;50.974;18.244;2023-08-30T05:29:00;1.00;;;0.20;;
57345;SDS011;43181;50.974;18.244;2023-08-30T05:31:26;1.50;;;0.90;;
57345;SDS011;43181;50.974;18.244;2023-08-30T05:33:51;1.10;;;0.40;;
57345;SDS011;43181;50.974;18.244;2023-08-30T05:36:17;1.50;;;0.40;;
57345;SDS011;43181;50.974;18.244;2023-08-30T05:38:43;1.10;;;1.00;;
57345;SDS011;43181;50.974;18.244;2023-08-30T05:41:09;0.40;;;0.40;;
57345;SDS011;43181;50.974;18.244;2023-08-30T05:43:35;1.90;;;1.20;;
57345;SDS011;43181;50.974;18.244;2023-08-30T05:46:00;2.30;;;0.50;;
57345;SDS011;43181;50.974;18.244;2023-08-30T05:48:28;0.90;;;0.70;;
57345;SDS011;43181;50.974;18.244;2023-08-30T05:50:54;0.70;;;0.40;;
57345;SDS011;43181;50.974;18.244;2023-08-30T05:53:19;0.80;;;0.70;;
57345;SDS011;43181;50.974;18.244;2023-08-30T05:55:45;0.50;;;0.50;;
57345;SDS011;43181;50.974;18.244;2023-08-30T05:58:11;0.90;;;0.80;;
57345;SDS011;43181;50.974;18.244;2023-08-30T06:00:36;1.20;;;1.10;;
57345;SDS011;43181;50.974;18.244;2023-08-30T06:03:03;1.70;;;0.70;;
57345;SDS011;43181;50.974;18.244;2023-08-30T06:05:29;0.70;;;0.70;;
57345;SDS011;43181;50.974;18.244;2023-08-30T06:07:55;0.80;;;0.60;;
57345;SDS011;43181;50.974;18.244;2023-08-30T06:10:20;0.80;;;0.80;;
57345;SDS011;43181;50.974;18.244;2023-08-30T06:12:46;1.10;;;1.00;;
57345;SDS011;43181;50.974;18.244;2023-08-30T06:15:12;0.30;;;0.30;;
57345;SDS011;43181;50.974;18.244;2023-08-30T06:17:37;1.20;;;1.00;;
57345;SDS011;43181;50.974;18.244;2023-08-30T06:20:04;0.50;;;0.50;;
57345;SDS011;43181;50.974;18.244;2023-08-30T06:22:30;0.70;;;0.50;;
57345;SDS011;43181;50.974;18.244;2023-08-30T06:24:56;2.90;;;0.70;;
57345;SDS011;43181;50.974;18.244;2023-08-30T06:27:23;0.50;;;0.30;;
57345;SDS011;43181;50.974;18.244;2023-08-30T06:29:49;0.70;;;0.60;;
57345;SDS011;43181;50.974;18.244;2023-08-30T06:32:16;2.10;;;0.70;;
57345;SDS011;43181;50.974;18.244;2023-08-30T06:34:44;1.50;;;0.70;;
57345;SDS011;43181;50.974;18.244;2023-08-30T06:37:10;0.30;;;0.30;;
57345;SDS011;43181;50.974;18.244;2023-08-30T06:39:35;1.10;;;1.00;;
57345;SDS011;43181;50.974;18.244;2023-08-30T06:42:04;0.30;;;0.30;;
57345;SDS011;43181;50.974;18.244;2023-08-30T06:44:30;0.30;;;0.30;;
57345;SDS011;43181;50.974;18.244;2023-08-30T06:46:56;1.50;;;1.10;;
57345;SDS011;43181;50.974;18.244;2023-08-30T06:49:24;1.70;;;0.60;;
57345;SDS011;43181;50.974;18.244;2023-08-30T06:51:50;0.40;;;0.40;;
57345;SDS011;43181;50.974;18.244;2023-08-30T06:54:16;0.60;;;0.60;;
57345;SDS011;43181;50.974;18.244;2023-08-30T06:56:56;1.30;;;1.20;;
57345;SDS011;43181;50.974;18.244;2023-08-30T06:59:23;1.70;;;1.20;;
57345;SDS011;43181;50.974;18.244;2023-08-30T07:01:51;0.90;;;0.60;;
57345;SDS011;43181;50.974;18.244;2023-08-30T07:04:17;1.20;;;0.60;;
57345;SDS011;43181;50.974;18.244;2023-08-30T07:06:43;2.40;;;1.10;;
57345;SDS011;43181;50.974;18.244;2023-08-30T07:09:09;2.70;;;0.90;;
57345;SDS011;43181;50.974;18.244;2023-08-30T07:11:35;0.50;;;0.50;;
57345;SDS011;43181;50.974;18.244;2023-08-30T07:14:01;0.60;;;0.50;;
57345;SDS011;43181;50.974;18.244;2023-08-30T07:16:27;1.20;;;0.50;;
57345;SDS011;43181;50.974;18.244;2023-08-30T07:18:53;0.80;;;0.70;;
57345;SDS011;43181;50.974;18.244;2023-08-30T07:21:19;0.20;;;0.20;;
57345;SDS011;43181;50.974;18.244;2023-08-30T07:23:44;1.00;;;0.90;;
57345;SDS011;43181;50.974;18.244;2023-08-30T07:26:11;1.10;;;0.60;;
57345;SDS011;43181;50.974;18.244;2023-08-30T07:28:37;0.90;;;0.70;;
57345;SDS011;43181;50.974;18.244;2023-08-30T07:31:05;0.80;;;0.40;;
57345;SDS011;43181;50.974;18.244;2023-08-30T07:33:31;0.60;;;0.60;;
57345;SDS011;43181;50.974;18.244;2023-08-30T07:35:58;1.20;;;0.80;;
57345;SDS011;43181;50.974;18.244;2023-08-30T07:38:23;1.30;;;1.20;;
57345;SDS011;43181;50.974;18.244;2023-08-30T07:40:49;2.70;;;0.90;;
57345;SDS011;43181;50.974;18.244;2023-08-30T07:43:15;1.20;;;0.80;;
57345;SDS011;43181;50.974;18.244;2023-08-30T07:45:40;1.60;;;0.70;;
57345;SDS011;43181;50.974;18.244;2023-08-30T07:48:07;0.90;;;0.90;;
57345;SDS011;43181;50.974;18.244;2023-08-30T07:50:33;0.40;;;0.30;;
57345;SDS011;43181;50.974;18.244;2023-08-30T07:52:58;0.50;;;0.50;;
57345;SDS011;43181;50.974;18.244;2023-08-30T07:55:24;0.60;;;0.60;;
57345;SDS011;43181;50.974;18.244;2023-08-30T07:57:50;0.50;;;0.50;;
57345;SDS011;43181;50.974;18.244;2023-08-30T08:00:16;0.40;;;0.20;;
57345;SDS011;43181;50.974;18.244;2023-08-30T08:02:42;0.80;;;0.60;;
57345;SDS011;43181;50.974;18.244;2023-08-30T08:05:08;1.40;;;0.80;;
57345;SDS011;43181;50.974;18.244;2023-08-30T08:07:36;1.10;;;0.70;;
57345;SDS011;43181;50.974;18.244;2023-08-30T08:10:06;2.30;;;1.00;;
57345;SDS011;43181;50.974;18.244;2023-08-30T08:12:32;0.80;;;0.60;;
57345;SDS011;43181;50.974;18.244;2023-08-30T08:14:58;1.00;;;0.50;;
57345;SDS011;43181;50.974;18.244;2023-08-30T08:17:24;1.70;;;0.70;;
57345;SDS011;43181;50.974;18.244;2023-08-30T08:19:50;1.20;;;0.50;;
57345;SDS011;43181;50.974;18.244;2023-08-30T08:22:16;0.70;;;0.70;;
57345;SDS011;43181;50.974;18.244;2023-08-30T08:24:41;1.10;;;0.90;;
57345;SDS011;43181;50.974;18.244;2023-08-30T08:27:09;1.00;;;0.90;;
57345;SDS011;43181;50.974;18.244;2023-08-30T08:29:37;0.50;;;0.50;;
57345;SDS011;43181;50.974;18.244;2023-08-30T08:32:03;1.40;;;1.10;;
57345;SDS011;43181;50.974;18.244;2023-08-30T08:34:29;1.50;;;0.70;;
57345;SDS011;43181;50.974;18.244;2023-08-30T08:36:55;1.80;;;0.80;;
57345;SDS011;43181;50.974;18.244;2023-08-30T08:39:21;0.30;;;0.30;;
57345;SDS011;43181;50.974;18.244;2023-08-30T08:41:47;1.70;;;1.20;;
57345;SDS011;43181;50.974;18.244;2023-08-30T08:44:13;1.40;;;0.90;;
57345;SDS011;43181;50.974;18.244;2023-08-30T08:46:40;0.60;;;0.30;;
57345;SDS011;43181;50.974;18.244;2023-08-30T08:49:16;1.20;;;0.60;;
57345;SDS011;43181;50.974;18.244;2023-08-30T08:51:42;0.60;;;0.40;;
57345;SDS011;43181;50.974;18.244;2023-08-30T08:54:09;1.30;;;1.00;;
57345;SDS011;43181;50.974;18.244;2023-08-30T08:56:35;0.60;;;0.40;;
57345;SDS011;43181;50.974;18.244;2023-08-30T08:59:02;0.60;;;0.60;;
57345;SDS011;43181;50.974;18.244;2023-08-30T09:01:28;0.40;;;0.40;;
57345;SDS011;43181;50.974;18.244;2023-08-30T09:03:54;1.30;;;1.00;;
57345;SDS011;43181;50.974;18.244;2023-08-30T09:06:21;3.40;;;1.20;;
57345;SDS011;43181;50.974;18.244;2023-08-30T09:08:47;0.70;;;0.70;;
57345;SDS011;43181;50.974;18.244;2023-08-30T09:11:13;1.80;;;1.40;;
57345;SDS011;43181;50.974;18.244;2023-08-30T09:13:38;2.70;;;1.90;;
57345;SDS011;43181;50.974;18.244;2023-08-30T09:16:13;1.60;;;1.50;;
57345;SDS011;43181;50.974;18.244;2023-08-30T09:18:40;2.70;;;1.00;;
57345;SDS011;43181;50.974;18.244;2023-08-30T09:21:07;1.20;;;1.10;;
57345;SDS011;43181;50.974;18.244;2023-08-30T09:23:36;1.50;;;1.40;;
57345;SDS011;43181;50.974;18.244;2023-08-30T09:26:03;0.80;;;0.80;;
57345;SDS011;43181;50.974;18.244;2023-08-30T09:28:29;0.60;;;0.40;;
57345;SDS011;43181;50.974;18.244;2023-08-30T09:30:57;2.50;;;1.30;;
57345;SDS011;43181;50.974;18.244;2023-08-30T09:33:32;0.60;;;0.50;;
57345;SDS011;43181;50.974;18.244;2023-08-30T09:35:58;1.70;;;0.90;;
57345;SDS011;43181;50.974;18.244;2023-08-30T09:38:27;0.90;;;0.50;;
57345;SDS011;43181;50.974;18.244;2023-08-30T09:41:02;2.40;;;1.30;;
57345;SDS011;43181;50.974;18.244;2023-08-30T09:43:34;1.40;;;0.70;;
57345;SDS011;43181;50.974;18.244;2023-08-30T09:46:03;2.10;;;0.70;;
57345;SDS011;43181;50.974;18.244;2023-08-30T09:50:58;0.70;;;0.40;;
57345;SDS011;43181;50.974;18.244;2023-08-30T09:53:25;0.60;;;0.60;;
57345;SDS011;43181;50.974;18.244;2023-08-30T09:55:53;1.10;;;0.70;;
57345;SDS011;43181;50.974;18.244;2023-08-30T09:58:21;0.30;;;0.30;;
57345;SDS011;43181;50.974;18.244;2023-08-30T10:00:50;1.10;;;1.00;;
57345;SDS011;43181;50.974;18.244;2023-08-30T10:03:15;1.20;;;0.80;;
57345;SDS011;43181;50.974;18.244;2023-08-30T10:05:44;2.70;;;1.60;;
57345;SDS011;43181;50.974;18.244;2023-08-30T10:08:10;0.60;;;0.60;;
57345;SDS011;43181;50.974;18.244;2023-08-30T10:10:36;2.50;;;1.20;;
57345;SDS011;43181;50.974;18.244;2023-08-30T10:13:03;0.70;;;0.50;;
57345;SDS011;43181;50.974;18.244;2023-08-30T10:15:30;7.60;;;1.00;;
57345;SDS011;43181;50.974;18.244;2023-08-30T10:17:59;0.60;;;0.60;;
57345;SDS011;43181;50.974;18.244;2023-08-30T10:20:26;1.20;;;0.70;;
57345;SDS011;43181;50.974;18.244;2023-08-30T10:22:53;1.10;;;1.00;;
57345;SDS011;43181;50.974;18.244;2023-08-30T10:25:20;0.10;;;0.10;;
57345;SDS011;43181;50.974;18.244;2023-08-30T10:27:50;0.80;;;0.50;;
57345;SDS011;43181;50.974;18.244;2023-08-30T10:30:16;1.30;;;0.60;;
57345;SDS011;43181;50.974;18.244;2023-08-30T10:32:42;0.40;;;0.40;;
57345;SDS011;43181;50.974;18.244;2023-08-30T10:35:13;0.40;;;0.40;;
57345;SDS011;43181;50.974;18.244;2023-08-30T10:37:40;0.50;;;0.50;;
57345;SDS011;43181;50.974;18.244;2023-08-30T10:40:07;1.60;;;0.80;;
57345;SDS011;43181;50.974;18.244;2023-08-30T10:42:33;1.50;;;0.70;;
57345;SDS011;43181;50.974;18.244;2023-08-30T10:45:00;1.00;;;0.60;;
57345;SDS011;43181;50.974;18.244;2023-08-30T10:47:28;0.50;;;0.30;;
57345;SDS011;43181;50.974;18.244;2023-08-30T10:49:58;1.00;;;0.90;;
57345;SDS011;43181;50.974;18.244;2023-08-30T10:52:26;0.50;;;0.50;;
57345;SDS011;43181;50.974;18.244;2023-08-30T10:55:03;1.90;;;0.80;;
57345;SDS011;43181;50.974;18.244;2023-08-30T10:57:30;0.80;;;0.70;;
57345;SDS011;43181;50.974;18.244;2023-08-30T11:02:57;0.50;;;0.50;;
57345;SDS011;43181;50.974;18.244;2023-08-30T11:05:24;1.70;;;1.00;;
57345;SDS011;43181;50.974;18.244;2023-08-30T11:07:50;1.10;;;0.60;;
57345;SDS011;43181;50.974;18.244;2023-08-30T11:10:17;0.70;;;0.70;;
57345;SDS011;43181;50.974;18.244;2023-08-30T11:12:44;0.50;;;0.30;;
57345;SDS011;43181;50.974;18.244;2023-08-30T11:15:11;0.30;;;0.20;;
57345;SDS011;43181;50.974;18.244;2023-08-30T11:17:39;0.40;;;0.40;;
57345;SDS011;43181;50.974;18.244;2023-08-30T11:22:37;0.60;;;0.60;;
57345;SDS011;43181;50.974;18.244;2023-08-30T11:25:10;0.60;;;0.50;;
57345;SDS011;43181;50.974;18.244;2023-08-30T11:27:40;0.90;;;0.80;;
57345;SDS011;43181;50.974;18.244;2023-08-30T11:30:07;1.50;;;0.90;;
57345;SDS011;43181;50.974;18.244;2023-08-30T11:32:37;1.70;;;0.60;;
57345;SDS011;43181;50.974;18.244;2023-08-30T11:35:10;1.20;;;0.60;;
57345;SDS011;43181;50.974;18.244;2023-08-30T11:37:36;1.90;;;0.50;;
57345;SDS011;43181;50.974;18.244;2023-08-30T11:40:02;0.70;;;0.60;;
57345;SDS011;43181;50.974;18.244;2023-08-30T11:42:31;1.90;;;0.50;;
57345;SDS011;43181;50.974;18.244;2023-08-30T11:44:58;0.20;;;0.10;;
57345;SDS011;43181;50.974;18.244;2023-08-30T11:47:25;0.10;;;0.10;;
57345;SDS011;43181;50.974;18.244;2023-08-30T11:49:55;1.90;;;0.30;;
57345;SDS011;43181;50.974;18.244;2023-08-30T11:52:25;1.20;;;0.30;;
57345;SDS011;43181;50.974;18.244;2023-08-30T11:54:52;0.60;;;0.40;;
57345;SDS011;43181;50.974;18.244;2023-08-30T11:57:18;0.90;;;0.50;;
57345;SDS011;43181;50.974;18.244;2023-08-30T11:59:44;0.40;;;0.40;;
57345;SDS011;43181;50.974;18.244;2023-08-30T12:02:11;0.80;;;0.40;;
57345;SDS011;43181;50.974;18.244;2023-08-30T12:04:41;0.30;;;0.30;;
57345;SDS011;43181;50.974;18.244;2023-08-30T12:07:08;2.30;;;0.50;;
57345;SDS011;43181;50.974;18.244;2023-08-30T12:09:34;0.30;;;0.30;;
57345;SDS011;43181;50.974;18.244;2023-08-30T12:12:06;0.20;;;0.20;;
57345;SDS011;43181;50.974;18.244;2023-08-30T12:14:35;0.20;;;0.20;;
57345;SDS011;43181;50.974;18.244;2023-08-30T12:17:01;1.10;;;0.70;;
57345;SDS011;43181;50.974;18.244;2023-08-30T12:19:28;0.30;;;0.30;;
57345;SDS011;43181;50.974;18.244;2023-08-30T12:21:54;0.80;;;0.50;;
57345;SDS011;43181;50.974;18.244;2023-08-30T12:24:20;0.20;;;0.20;;
57345;SDS011;43181;50.974;18.244;2023-08-30T12:26:48;0.10;;;0.10;;
57345;SDS011;43181;50.974;18.244;2023-08-30T12:29:14;0.40;;;0.40;;
57345;SDS011;43181;50.974;18.244;2023-08-30T12:31:39;2.20;;;0.30;;
57345;SDS011;43181;50.974;18.244;2023-08-30T12:34:05;0.80;;;0.40;;
57345;SDS011;43181;50.974;18.244;2023-08-30T12:36:31;0.40;;;0.40;;
57345;SDS011;43181;50.974;18.244;2023-08-30T12:38:57;0.10;;;0.10;;
57345;SDS011;43181;50.974;18.244;2023-08-30T12:41:22;1.10;;;0.70;;
57345;SDS011;43181;50.974;18.244;2023-08-30T12:43:49;0.30;;;0.30;;
57345;SDS011;43181;50.974;18.244;2023-08-30T12:46:16;0.40;;;0.40;;
57345;SDS011;43181;50.974;18.244;2023-08-30T12:48:42;0.30;;;0.30;;
57345;SDS011;43181;50.974;18.244;2023-08-30T12:51:08;0.60;;;0.40;;
57345;SDS011;43181;50.974;18.244;2023-08-30T12:53:33;0.50;;;0.50;;
57345;SDS011;43181;50.974;18.244;2023-08-30T12:55:59;1.20;;;0.90;;
57345;SDS011;43181;50.974;18.244;2023-08-30T12:58:25;4.00;;;1.40;;
57345;SDS011;43181;50.974;18.244;2023-08-30T13:00:50;1.60;;;0.70;;
57345;SDS011;43181;50.974;18.244;2023-08-30T13:03:16;0.60;;;0.60;;
57345;SDS011;43181;50.974;18.244;2023-08-30T13:05:42;0.50;;;0.50;;
57345;SDS011;43181;50.974;18.244;2023-08-30T13:08:08;1.20;;;0.60;;
57345;SDS011;43181;50.974;18.244;2023-08-30T13:10:33;1.20;;;0.70;;
57345;SDS011;43181;50.974;18.244;2023-08-30T13:12:59;0.70;;;0.60;;
57345;SDS011;43181;50.974;18.244;2023-08-30T13:15:25;1.10;;;0.40;;
57345;SDS011;43181;50.974;18.244;2023-08-30T13:17:51;0.50;;;0.50;;
57345;SDS011;43181;50.974;18.244;2023-08-30T13:20:17;0.30;;;0.30;;
57345;SDS011;43181;50.974;18.244;2023-08-30T13:22:44;0.50;;;0.30;;
57345;SDS011;43181;50.974;18.244;2023-08-30T13:25:09;0.50;;;0.30;;
57345;SDS011;43181;50.974;18.244;2023-08-30T13:27:35;0.40;;;0.30;;
57345;SDS011;43181;50.974;18.244;2023-08-30T13:30:01;0.60;;;0.50;;
57345;SDS011;43181;50.974;18.244;2023-08-30T13:32:26;0.70;;;0.50;;
57345;SDS011;43181;50.974;18.244;2023-08-30T13:34:52;1.20;;;0.70;;
57345;SDS011;43181;50.974;18.244;2023-08-30T13:37:18;1.20;;;1.00;;
57345;SDS011;43181;50.974;18.244;2023-08-30T13:39:43;0.50;;;0.50;;
57345;SDS011;43181;50.974;18.244;2023-08-30T13:42:09;1.60;;;0.40;;
57345;SDS011;43181;50.974;18.244;2023-08-30T13:44:37;1.80;;;0.70;;
57345;SDS011;43181;50.974;18.244;2023-08-30T13:47:03;0.30;;;0.30;;
57345;SDS011;43181;50.974;18.244;2023-08-30T13:49:30;0.60;;;0.60;;
57345;SDS011;43181;50.974;18.244;2023-08-30T13:51:56;0.40;;;0.40;;
57345;SDS011;43181;50.974;18.244;2023-08-30T13:54:22;0.30;;;0.30;;
57345;SDS011;43181;50.974;18.244;2023-08-30T13:56:48;0.20;;;0.20;;
57345;SDS011;43181;50.974;18.244;2023-08-30T13:59:15;0.40;;;0.40;;
57345;SDS011;43181;50.974;18.244;2023-08-30T14:01:41;0.20;;;0.10;;
57345;SDS011;43181;50.974;18.244;2023-08-30T14:04:08;0.90;;;0.70;;
57345;SDS011;43181;50.974;18.244;2023-08-30T14:06:36;0.70;;;0.50;;
57345;SDS011;43181;50.974;18.244;2023-08-30T14:09:02;0.60;;;0.60;;
57345;SDS011;43181;50.974;18.244;2023-08-30T14:11:30;0.60;;;0.30;;
57345;SDS011;43181;50.974;18.244;2023-08-30T14:13:56;0.80;;;0.60;;
57345;SDS011;43181;50.974;18.244;2023-08-30T14:16:21;0.70;;;0.30;;
57345;SDS011;43181;50.974;18.244;2023-08-30T14:18:47;3.00;;;1.50;;
57345;SDS011;43181;50.974;18.244;2023-08-30T14:21:13;1.00;;;0.70;;
57345;SDS011;43181;50.974;18.244;2023-08-30T14:23:39;0.30;;;0.30;;
57345;SDS011;43181;50.974;18.244;2023-08-30T14:26:06;0.50;;;0.40;;
57345;SDS011;43181;50.974;18.244;2023-08-30T14:28:35;0.60;;;0.60;;
57345;SDS011;43181;50.974;18.244;2023-08-30T14:31:02;0.50;;;0.40;;
57345;SDS011;43181;50.974;18.244;2023-08-30T14:33:30;1.00;;;0.40;;
57345;SDS011;43181;50.974;18.244;2023-08-30T14:35:56;0.90;;;0.70;;
57345;SDS011;43181;50.974;18.244;2023-08-30T14:38:22;1.70;;;0.70;;
57345;SDS011;43181;50.974;18.244;2023-08-30T14:40:59;1.00;;;0.30;;
57345;SDS011;43181;50.974;18.244;2023-08-30T14:43:26;0.90;;;0.80;;
57345;SDS011;43181;50.974;18.244;2023-08-30T14:46:03;2.60;;;1.10;;